createdAt,value
2022-08-16T00:03:26.898Z,64.97
2022-08-16T00:07:23.896Z,65.19
2022-08-16T00:11:21.973Z,65.82
2022-08-16T00:15:51.600Z,66.73
2022-08-16T00:19:45.677Z,66.25
2022-08-16T00:23:46.076Z,66.47
2022-08-16T00:27:43.859Z,67.26
2022-08-16T00:32:00.683Z,68.05
2022-08-16T00:36:03.060Z,68.00
2022-08-16T00:40:00.626Z,68.73
2022-08-16T00:44:10.766Z,69.37
2022-08-16T00:48:30.539Z,69.47
2022-08-16T00:52:30.450Z,70.08
2022-08-16T00:56:56.766Z,70.94
2022-08-16T01:00:54.327Z,71.89
2022-08-16T01:05:11.078Z,72.75
2022-08-16T01:09:09.039Z,73.69
2022-08-16T01:13:15.287Z,73.93
2022-08-16T01:17:15.481Z,74.16
2022-08-16T01:21:39.752Z,74.31
2022-08-16T01:25:44.723Z,74.10
2022-08-16T01:30:21.944Z,74.29
2022-08-16T01:34:26.603Z,74.45
2022-08-16T01:38:37.510Z,75.15
2022-08-16T01:42:39.540Z,75.40
2022-08-16T01:46:45.126Z,76.34
2022-08-16T01:51:09.115Z,76.31
2022-08-16T01:55:07.286Z,76.46
2022-08-16T01:59:15.770Z,77.44
2022-08-16T02:03:14.680Z,77.86
2022-08-16T02:07:13.360Z,77.71
2022-08-16T02:11:11.456Z,78.03
2022-08-16T02:15:09.138Z,77.64
2022-08-16T02:19:16.192Z,77.67
2022-08-16T02:23:14.334Z,77.92
2022-08-16T02:27:15.052Z,78.07
2022-08-16T02:31:16.112Z,77.89
2022-08-16T02:35:13.991Z,77.71
2022-08-16T02:39:15.997Z,78.59
2022-08-16T02:43:13.921Z,78.41
2022-08-16T02:47:12.497Z,78.78
2022-08-16T02:51:23.337Z,79.50
2022-08-16T02:55:40.826Z,79.86
2022-08-16T02:59:42.428Z,80.80
2022-08-16T03:04:39.640Z,81.50
2022-08-16T03:07:57.834Z,81.58
2022-08-16T03:11:56.080Z,81.34
2022-08-16T03:15:54.214Z,81.61
2022-08-16T03:20:00.010Z,81.71
2022-08-16T03:24:02.879Z,82.35
2022-08-16T03:28:00.766Z,82.03
2022-08-16T03:32:01.403Z,83.06
2022-08-16T03:36:30.416Z,82.40
2022-08-16T03:40:23.273Z,83.16
2022-08-16T03:44:40.774Z,84.32
2022-08-16T03:48:45.566Z,83.35
2022-08-16T03:52:47.684Z,82.58
2022-08-16T03:56:57.665Z,83.40
2022-08-16T04:00:59.370Z,83.20
2022-08-16T04:04:57.397Z,83.31
2022-08-16T04:08:55.090Z,83.55
2022-08-16T04:12:55.427Z,84.24
2022-08-16T04:16:59.439Z,83.87
2022-08-16T04:21:07.158Z,84.68
2022-08-16T04:25:05.913Z,85.26
2022-08-16T04:29:16.781Z,85.78
2022-08-16T04:33:27.457Z,86.55
2022-08-16T04:37:27.180Z,85.74
2022-08-16T04:41:37.521Z,85.03
2022-08-16T04:45:38.632Z,85.22
2022-08-16T04:49:46.180Z,86.11
2022-08-16T04:53:45.393Z,85.67
2022-08-16T04:57:46.035Z,85.21
2022-08-16T05:01:58.799Z,84.62
2022-08-16T05:06:02.276Z,83.96
2022-08-16T05:10:19.397Z,84.06
2022-08-16T05:14:42.027Z,84.22
2022-08-16T05:18:35.556Z,84.53
2022-08-16T05:22:33.020Z,84.78
2022-08-16T05:26:33.485Z,84.28
2022-08-16T05:30:34.730Z,84.46
2022-08-16T05:34:38.691Z,84.05
2022-08-16T05:38:39.663Z,84.58
2022-08-16T05:42:45.956Z,83.30
2022-08-16T05:46:45.742Z,82.85
2022-08-16T05:50:47.599Z,82.22
2022-08-16T05:55:01.046Z,82.03
2022-08-16T05:59:01.366Z,81.06
2022-08-16T06:03:00.220Z,80.21
2022-08-16T06:07:26.695Z,79.02
2022-08-16T06:11:47.126Z,78.85
2022-08-16T06:15:44.684Z,77.50
2022-08-16T06:19:45.723Z,77.04
2022-08-16T06:23:45.269Z,76.97
2022-08-16T06:27:57.174Z,76.37
2022-08-16T06:31:57.674Z,75.76
2022-08-16T06:35:59.369Z,74.65
2022-08-16T06:39:58.885Z,73.56
2022-08-16T06:44:06.935Z,72.88
2022-08-16T06:48:19.045Z,71.54
2022-08-16T06:52:59.854Z,70.68
2022-08-16T06:56:54.196Z,69.53
2022-08-16T07:00:53.226Z,69.03
2022-08-16T07:04:53.301Z,69.30
2022-08-16T07:08:51.401Z,68.63
2022-08-16T07:13:03.539Z,67.83
2022-08-16T07:17:08.031Z,67.50
2022-08-16T07:21:10.197Z,66.25
2022-08-16T07:25:13.742Z,66.33
2022-08-16T07:29:11.115Z,65.60
2022-08-16T07:33:10.736Z,64.45
2022-08-16T07:37:14.158Z,63.47
2022-08-16T07:41:24.966Z,64.02
2022-08-16T07:45:28.697Z,62.40
2022-08-16T07:49:32.350Z,61.86
2022-08-16T07:53:43.805Z,61.54
2022-08-16T07:57:55.869Z,60.72
2022-08-16T08:01:59.297Z,59.06
2022-08-16T08:05:57.636Z,56.11
2022-08-16T08:09:57.064Z,52.65
2022-08-16T08:13:55.127Z,49.65
2022-08-16T08:17:54.637Z,47.08
2022-08-16T08:22:01.790Z,44.21
2022-08-16T08:26:17.380Z,40.19
2022-08-16T08:30:51.144Z,38.53
2022-08-16T08:34:34.429Z,38.56
2022-08-16T08:38:43.660Z,40.11
2022-08-16T08:42:43.746Z,40.06
2022-08-16T08:47:00.151Z,40.21
2022-08-16T08:50:59.341Z,41.02
2022-08-16T08:54:57.062Z,38.21
2022-08-16T08:58:59.169Z,38.32
2022-08-16T09:03:04.541Z,39.46
2022-08-16T09:07:04.763Z,40.97
2022-08-16T09:11:04.092Z,40.82
2022-08-16T09:15:09.221Z,40.50
2022-08-16T09:19:11.741Z,41.27
2022-08-16T09:23:08.985Z,40.18
2022-08-16T09:27:14.428Z,37.67
2022-08-16T09:31:14.835Z,36.12
2022-08-16T09:35:11.978Z,37.75
2022-08-16T09:39:16.375Z,35.98
2022-08-16T09:43:58.245Z,35.31
2022-08-16T09:47:56.506Z,33.99
2022-08-16T09:51:55.608Z,32.16
2022-08-16T09:55:56.954Z,34.29
2022-08-16T09:59:56.117Z,35.00
2022-08-16T10:04:01.564Z,34.95
2022-08-16T10:07:59.979Z,35.15
2022-08-16T10:12:35.468Z,36.43
2022-08-16T10:16:40.077Z,35.56
2022-08-16T10:20:42.924Z,35.51
2022-08-16T10:24:56.097Z,36.02
2022-08-16T10:28:57.122Z,37.66
2022-08-16T10:32:54.217Z,39.40
2022-08-16T10:36:54.333Z,39.26
2022-08-16T10:40:51.580Z,39.38
2022-08-16T10:44:53.584Z,39.63
2022-08-16T10:48:52.515Z,38.85
2022-08-16T10:52:50.312Z,36.33
2022-08-16T10:56:56.914Z,33.65
2022-08-16T11:00:57.587Z,35.15
2022-08-16T11:05:10.727Z,35.05
2022-08-16T11:09:25.346Z,34.93
2022-08-16T11:17:43.176Z,33.98
2022-08-16T11:26:16.438Z,34.29
2022-08-16T11:30:19.824Z,32.61
2022-08-16T11:34:19.886Z,28.20
2022-08-16T11:38:46.701Z,27.50
2022-08-16T11:42:39.499Z,26.29
2022-08-16T11:46:44.833Z,25.15
2022-08-16T11:50:44.996Z,27.07
2022-08-16T11:54:42.118Z,27.60
2022-08-16T11:58:42.137Z,29.84
2022-08-16T12:02:39.979Z,30.37
2022-08-16T12:06:43.159Z,31.18
2022-08-16T12:10:43.140Z,31.21
2022-08-16T12:14:40.766Z,27.81
2022-08-16T12:18:40.635Z,25.60
2022-08-16T12:22:38.972Z,26.77
2022-08-16T12:26:36.035Z,26.62
2022-08-16T12:30:41.015Z,24.36
2022-08-16T12:34:38.240Z,24.77
2022-08-16T12:38:48.929Z,26.95
2022-08-16T12:42:53.020Z,28.95
2022-08-16T12:47:10.572Z,31.07
2022-08-16T12:51:22.338Z,31.59
2022-08-16T12:55:23.953Z,32.17
2022-08-16T12:59:31.273Z,32.46
2022-08-16T13:03:29.015Z,32.69
2022-08-16T13:07:37.479Z,32.30
2022-08-16T13:11:48.395Z,31.67
2022-08-16T13:16:03.597Z,32.06
2022-08-16T13:20:09.458Z,32.43
2022-08-16T13:24:08.154Z,31.67
2022-08-16T13:28:05.825Z,31.59
2022-08-16T13:32:05.549Z,31.38
2022-08-16T13:36:07.370Z,31.44
2022-08-16T13:40:20.002Z,31.17
2022-08-16T13:44:19.044Z,32.05
2022-08-16T13:48:21.925Z,31.50
2022-08-16T13:52:24.979Z,30.49
2022-08-16T13:56:36.958Z,29.52
2022-08-16T14:00:36.479Z,30.55
2022-08-16T14:04:37.961Z,30.96
2022-08-16T14:08:35.003Z,31.12
2022-08-16T14:12:34.560Z,31.97
2022-08-16T14:16:34.020Z,32.75
2022-08-16T14:20:31.934Z,32.42
2022-08-16T14:24:30.370Z,32.15
2022-08-16T14:28:27.770Z,32.59
2022-08-16T14:32:34.018Z,32.55
2022-08-16T14:36:33.123Z,32.81
2022-08-16T14:40:30.897Z,32.67
2022-08-16T14:44:28.244Z,32.80
2022-08-16T14:48:26.209Z,31.63
2022-08-16T14:52:51.927Z,31.09
2022-08-16T14:56:43.085Z,30.10
2022-08-16T15:00:43.690Z,30.47
2022-08-16T15:04:48.268Z,30.83
2022-08-16T15:08:46.624Z,30.81
2022-08-16T15:12:45.624Z,30.33
2022-08-16T15:16:46.121Z,27.73
2022-08-16T15:20:44.314Z,27.10
2022-08-16T15:24:43.739Z,27.16
2022-08-16T15:28:41.516Z,28.01
2022-08-16T15:32:39.983Z,28.53
2022-08-16T15:36:37.013Z,29.45
2022-08-16T15:40:35.803Z,30.34
2022-08-16T15:44:45.120Z,29.90
2022-08-16T15:48:51.546Z,27.96
2022-08-16T15:52:48.665Z,27.30
2022-08-16T15:56:46.530Z,26.67
2022-08-16T16:00:46.446Z,26.07
2022-08-16T16:04:43.801Z,24.83
2022-08-16T16:08:41.803Z,25.11
2022-08-16T16:12:53.365Z,24.74
2022-08-16T16:16:52.953Z,25.11
2022-08-16T16:20:57.100Z,25.63
2022-08-16T16:24:54.488Z,26.90
2022-08-16T16:29:08.510Z,26.29
2022-08-16T16:33:08.863Z,26.05
2022-08-16T16:37:09.499Z,26.49
2022-08-16T16:41:09.805Z,26.57
2022-08-16T16:45:10.521Z,27.49
2022-08-16T16:49:09.276Z,27.99
2022-08-16T16:53:17.097Z,29.07
2022-08-16T16:57:35.284Z,29.78
2022-08-16T17:01:59.531Z,30.68
2022-08-16T17:06:09.373Z,31.68
2022-08-16T17:10:09.307Z,32.52
2022-08-16T17:14:13.889Z,33.62
2022-08-16T17:19:17.055Z,34.42
2022-08-16T17:22:43.707Z,34.57
2022-08-16T17:26:40.791Z,34.11
2022-08-16T17:30:46.063Z,33.75
2022-08-16T17:34:46.403Z,33.06
2022-08-16T17:38:44.755Z,32.81
2022-08-16T17:42:47.839Z,33.41
2022-08-16T17:46:52.171Z,33.62
2022-08-16T17:50:50.129Z,34.18
2022-08-16T17:54:51.901Z,35.03
2022-08-16T17:58:49.101Z,35.73
2022-08-16T18:02:48.046Z,37.05
2022-08-16T18:06:47.040Z,37.92
2022-08-16T18:10:44.493Z,39.59
2022-08-16T18:14:50.942Z,40.57
2022-08-16T18:18:50.388Z,42.36
2022-08-16T18:22:47.698Z,43.65
2022-08-16T18:26:45.564Z,42.95
2022-08-16T18:30:46.762Z,42.97
2022-08-16T18:34:46.459Z,43.50
2022-08-16T18:38:43.468Z,44.32
2022-08-16T18:42:52.090Z,44.63
2022-08-16T18:46:50.887Z,45.73
2022-08-16T18:50:59.369Z,47.27
2022-08-16T18:55:13.934Z,48.06
2022-08-16T18:59:11.810Z,47.89
2022-08-16T19:03:18.271Z,48.04
2022-08-16T19:07:15.271Z,48.35
2022-08-16T19:11:20.050Z,49.08
2022-08-16T19:15:24.283Z,49.91
2022-08-16T19:19:22.870Z,50.35
2022-08-16T19:23:26.399Z,50.99
2022-08-16T19:27:23.685Z,51.03
2022-08-16T19:31:26.254Z,52.46
2022-08-16T19:35:23.287Z,53.21
2022-08-16T19:39:20.317Z,53.26
2022-08-16T19:43:17.494Z,54.06
2022-08-16T19:47:15.603Z,53.67
2022-08-16T19:51:16.517Z,54.41
2022-08-16T19:55:19.341Z,54.42
2022-08-16T19:59:21.993Z,55.10
2022-08-16T20:03:22.972Z,56.19
2022-08-16T20:07:21.530Z,56.77
2022-08-16T20:11:18.922Z,57.41
2022-08-16T20:15:17.128Z,57.62
2022-08-16T20:19:14.456Z,58.07
2022-08-16T20:23:24.875Z,58.10
2022-08-16T20:27:22.864Z,58.59
2022-08-16T20:31:20.464Z,59.21
2022-08-16T20:35:22.393Z,59.68
2022-08-16T20:39:19.954Z,60.39
2022-08-16T20:43:16.966Z,60.38
2022-08-16T20:47:14.392Z,61.05
2022-08-16T20:51:12.179Z,61.48
2022-08-16T20:55:09.711Z,61.34
2022-08-16T20:59:06.698Z,61.62
2022-08-16T21:03:12.404Z,62.17
2022-08-16T21:07:09.889Z,62.63
2022-08-16T21:11:07.410Z,63.67
2022-08-16T21:15:08.841Z,63.26
2022-08-16T21:19:06.655Z,63.81
2022-08-16T21:23:07.859Z,64.44
2022-08-16T21:27:04.899Z,65.10
2022-08-16T21:31:03.738Z,64.88
2022-08-16T21:35:10.443Z,65.28
2022-08-16T21:39:07.515Z,65.24
2022-08-16T21:43:15.163Z,65.54
2022-08-16T21:47:12.279Z,66.16
2022-08-16T21:51:15.122Z,66.56
2022-08-16T21:55:12.151Z,66.35
2022-08-16T21:59:11.077Z,67.23
2022-08-16T22:03:10.737Z,67.60
2022-08-16T22:07:07.944Z,67.13
2022-08-16T22:11:08.914Z,67.89
2022-08-16T22:15:07.382Z,68.09
2022-08-16T22:19:06.835Z,68.28
2022-08-16T22:23:16.656Z,69.11
2022-08-16T22:27:13.812Z,69.85
2022-08-16T22:31:11.601Z,69.42
2022-08-16T22:35:14.346Z,69.55
2022-08-16T22:39:14.728Z,69.56
2022-08-16T22:43:13.754Z,70.44
2022-08-16T22:47:10.829Z,70.17
2022-08-16T22:51:07.891Z,71.12
2022-08-16T22:55:05.361Z,71.63
2022-08-16T22:59:02.399Z,70.86
2022-08-16T23:03:08.329Z,70.86
2022-08-16T23:07:06.715Z,71.75
2022-08-16T23:11:04.600Z,71.65
2022-08-16T23:15:04.673Z,72.24
2022-08-16T23:19:07.480Z,71.89
2022-08-16T23:23:20.461Z,72.36
2022-08-16T23:27:19.063Z,72.07
2022-08-16T23:31:16.384Z,72.63
2022-08-16T23:35:16.743Z,73.24
2022-08-16T23:39:14.020Z,73.75
2022-08-16T23:43:19.273Z,73.84
2022-08-16T23:47:16.324Z,74.50
2022-08-16T23:51:15.105Z,74.27
2022-08-16T23:55:12.231Z,73.73
2022-08-16T23:59:09.312Z,74.49
